createdAt,value
2018-04-16T00:00:26.098Z,21.20
2018-04-16T00:02:52.077Z,20.70
2018-04-16T00:05:18.058Z,18.93
2018-04-16T00:07:44.063Z,18.17
2018-04-16T00:10:10.046Z,17.80
2018-04-16T00:12:36.015Z,17.53
2018-04-16T00:15:01.998Z,15.50
2018-04-16T00:17:28.008Z,14.07
2018-04-16T00:19:54.033Z,13.50
2018-04-16T00:22:20.018Z,14.63
2018-04-16T00:24:46.747Z,13.70
2018-04-16T00:27:13.455Z,12.90
2018-04-16T00:29:39.454Z,13.17
2018-04-16T00:32:11.512Z,14.47
2018-04-16T00:34:43.504Z,14.60
2018-04-16T00:37:15.600Z,13.90
2018-04-16T00:39:48.337Z,13.87
2018-04-16T00:42:20.317Z,12.17
2018-04-16T00:44:52.464Z,11.33
2018-04-16T00:47:24.490Z,11.17
2018-04-16T00:49:56.458Z,10.90
2018-04-16T00:52:28.572Z,13.03
2018-04-16T00:55:01.339Z,9.33
2018-04-16T00:57:33.395Z,9.10
2018-04-16T01:00:06.511Z,10.53
2018-04-16T01:02:38.573Z,8.50
2018-04-16T01:05:11.370Z,8.10
2018-04-16T01:07:43.483Z,10.70
2018-04-16T01:10:15.626Z,8.07
2018-04-16T01:12:47.617Z,8.10
2018-04-16T01:15:20.324Z,7.00
2018-04-16T01:17:52.318Z,7.00
2018-04-16T01:20:24.451Z,7.27
2018-04-16T01:22:56.461Z,7.13
2018-04-16T01:25:28.534Z,7.27
2018-04-16T01:28:00.528Z,7.13
2018-04-16T01:30:32.753Z,7.37
2018-04-16T01:33:04.709Z,7.70
2018-04-16T01:35:36.901Z,7.97
2018-04-16T01:38:09.669Z,8.87
2018-04-16T01:40:42.559Z,8.80
2018-04-16T01:43:15.365Z,9.87
2018-04-16T01:45:47.319Z,10.40
2018-04-16T01:48:19.312Z,9.77
2018-04-16T01:50:51.463Z,10.77
2018-04-16T01:53:23.543Z,10.63
2018-04-16T01:55:55.683Z,13.23
2018-04-16T01:58:27.702Z,11.40
2018-04-16T02:01:00.641Z,12.77
2018-04-16T02:03:32.599Z,11.97
2018-04-16T02:06:04.836Z,12.37
2018-04-16T02:08:36.951Z,14.23
2018-04-16T02:11:09.182Z,14.87
2018-04-16T02:13:41.185Z,13.53
2018-04-16T02:16:13.945Z,13.03
2018-04-16T02:18:45.881Z,13.97
2018-04-16T02:21:18.002Z,13.10
2018-04-16T02:23:50.125Z,15.27
2018-04-16T02:26:22.120Z,14.67
2018-04-16T02:28:54.931Z,14.43
2018-04-16T02:31:26.991Z,15.33
2018-04-16T02:33:58.957Z,15.60
2018-04-16T02:36:31.029Z,15.90
2018-04-16T02:39:03.011Z,16.93
2018-04-16T02:41:35.027Z,16.97
2018-04-16T02:44:07.009Z,16.40
2018-04-16T02:46:39.034Z,16.50
2018-04-16T02:49:12.062Z,16.93
2018-04-16T02:51:44.323Z,19.07
2018-04-16T02:54:16.379Z,17.27
2018-04-16T02:56:48.428Z,17.83
2018-04-16T02:59:20.774Z,17.77
2018-04-16T03:01:52.907Z,16.33
2018-04-16T03:04:24.807Z,15.07
2018-04-16T03:09:59.632Z,16.30
2018-04-16T03:12:31.575Z,17.13
2018-04-16T03:15:04.463Z,14.90
2018-04-16T03:17:37.403Z,15.30
2018-04-16T03:20:09.643Z,16.87
2018-04-16T03:22:41.685Z,13.67
2018-04-16T03:25:13.821Z,13.03
2018-04-16T03:27:46.580Z,14.47
2018-04-16T03:30:18.825Z,12.33
2018-04-16T03:32:50.902Z,11.87
2018-04-16T03:35:23.020Z,13.03
2018-04-16T03:37:55.133Z,12.47
2018-04-16T03:40:27.218Z,11.23
2018-04-16T03:42:59.927Z,10.73
2018-04-16T03:45:32.021Z,9.77
2018-04-16T03:48:04.037Z,10.10
2018-04-16T03:50:36.005Z,11.47
2018-04-16T03:53:18.532Z,10.63
2018-04-16T03:55:45.337Z,11.73
2018-04-16T03:58:11.311Z,11.77
2018-04-16T04:00:37.280Z,10.03
2018-04-16T04:03:03.248Z,12.70
2018-04-16T04:05:29.220Z,9.87
2018-04-16T04:07:55.193Z,11.07
2018-04-16T04:10:22.174Z,11.63
2018-04-16T04:12:48.134Z,10.43
2018-04-16T04:15:14.116Z,10.53
2018-04-16T04:17:40.070Z,10.40
2018-04-16T04:20:10.219Z,10.03
2018-04-16T04:22:49.377Z,9.93
2018-04-16T04:25:28.781Z,11.83
2018-04-16T04:28:07.899Z,11.40
2018-04-16T04:30:35.862Z,11.53
2018-04-16T04:33:01.835Z,10.60
2018-04-16T04:35:27.799Z,11.00
2018-04-16T04:37:53.756Z,10.97
2018-04-16T04:40:20.449Z,11.07
2018-04-16T04:42:46.414Z,10.83
2018-04-16T04:45:12.407Z,10.07
2018-04-16T04:47:38.322Z,10.10
2018-04-16T04:50:05.087Z,10.23
2018-04-16T04:52:31.054Z,11.43
2018-04-16T04:54:57.030Z,11.47
2018-04-16T04:57:23.000Z,9.30
2018-04-16T04:59:50.047Z,12.83
2018-04-16T05:02:16.784Z,10.37
2018-04-16T05:04:43.476Z,13.77
2018-04-16T05:07:09.424Z,10.43
2018-04-16T05:09:35.521Z,13.03
2018-04-16T05:12:01.514Z,10.60
2018-04-16T05:14:27.517Z,10.37
2018-04-16T05:16:54.209Z,10.47
2018-04-16T05:19:20.157Z,14.13
2018-04-16T05:21:46.876Z,14.43
2018-04-16T05:24:12.842Z,10.97
2018-04-16T05:26:38.812Z,12.70
2018-04-16T05:29:04.799Z,12.23
2018-04-16T05:31:30.755Z,14.07
2018-04-16T05:33:56.709Z,14.43
2018-04-16T05:36:22.673Z,14.40
2018-04-16T05:38:48.666Z,16.60
2018-04-16T05:41:14.664Z,13.97
2018-04-16T05:43:40.676Z,14.47
2018-04-16T05:46:06.644Z,14.60
2018-04-16T05:48:32.759Z,11.20
2018-04-16T05:50:58.750Z,11.20
2018-04-16T05:53:24.718Z,12.53
2018-04-16T05:55:50.663Z,12.73
2018-04-16T05:58:17.374Z,14.57
2018-04-16T06:00:43.454Z,16.33
2018-04-16T06:03:09.430Z,12.97
2018-04-16T06:05:36.129Z,15.57
2018-04-16T06:08:02.086Z,15.70
2018-04-16T06:10:28.882Z,16.30
2018-04-16T06:12:54.818Z,17.17
2018-04-16T06:15:20.790Z,18.93
2018-04-16T06:17:46.753Z,17.53
2018-04-16T06:20:12.829Z,19.63
2018-04-16T06:22:38.789Z,21.97
2018-04-16T06:25:04.771Z,18.37
2018-04-16T06:27:30.849Z,19.60
2018-04-16T06:29:57.487Z,18.03
2018-04-16T06:32:24.208Z,19.90
2018-04-16T06:34:50.182Z,20.60
2018-04-16T06:37:16.157Z,18.73
2018-04-16T06:39:42.926Z,20.00
2018-04-16T06:42:08.885Z,19.47
2018-04-16T06:44:34.852Z,20.33
2018-04-16T06:47:00.834Z,20.10
2018-04-16T06:49:26.889Z,19.87
2018-04-16T06:51:53.581Z,16.33
2018-04-16T06:54:19.542Z,17.07
2018-04-16T06:56:46.253Z,16.83
2018-04-16T06:59:12.326Z,18.60
2018-04-16T07:01:38.310Z,16.77
2018-04-16T07:04:05.048Z,18.60
2018-04-16T07:06:31.759Z,17.87
2018-04-16T07:08:57.830Z,17.33
2018-04-16T07:11:23.794Z,15.80
2018-04-16T07:13:49.762Z,15.67
2018-04-16T07:16:15.744Z,19.97
2018-04-16T07:18:42.486Z,15.10
2018-04-16T07:21:09.243Z,14.87
2018-04-16T07:23:36.897Z,20.77
2018-04-16T07:26:03.605Z,20.33
2018-04-16T07:28:29.581Z,18.17
2018-04-16T07:30:55.595Z,19.17
2018-04-16T07:33:21.562Z,12.83
2018-04-16T07:35:47.539Z,17.40
2018-04-16T07:38:13.503Z,14.57
2018-04-16T07:40:40.226Z,20.10
2018-04-16T07:43:06.185Z,11.00
2018-04-16T07:45:32.143Z,16.13
2018-04-16T07:47:58.121Z,13.20
2018-04-16T07:50:24.079Z,13.07
2018-04-16T07:52:50.035Z,16.97
2018-04-16T07:55:15.993Z,13.73
2018-04-16T07:57:41.955Z,14.83
2018-04-16T08:00:07.934Z,14.47
2018-04-16T08:02:33.883Z,12.97
2018-04-16T08:04:59.815Z,13.97
2018-04-16T08:07:25.773Z,9.47
2018-04-16T08:09:51.801Z,12.17
2018-04-16T08:12:17.796Z,14.97
2018-04-16T08:14:44.495Z,16.13
2018-04-16T08:17:10.517Z,13.53
2018-04-16T08:19:36.492Z,11.63
2018-04-16T08:22:02.473Z,13.30
2018-04-16T08:24:28.551Z,12.63
2018-04-16T08:26:54.524Z,15.23
2018-04-16T08:29:21.234Z,9.20
2018-04-16T08:31:47.206Z,13.93
2018-04-16T08:34:13.230Z,11.90
2018-04-16T08:36:39.950Z,14.63
2018-04-16T08:39:06.956Z,16.67
2018-04-16T08:41:32.953Z,11.33
2018-04-16T08:43:58.935Z,17.83
2018-04-16T08:46:24.894Z,11.90
2018-04-16T08:48:50.858Z,14.07
2018-04-16T08:51:17.545Z,10.60
2018-04-16T08:53:44.189Z,11.90
2018-04-16T08:56:10.184Z,13.00
2018-04-16T08:58:36.153Z,13.97
2018-04-16T09:01:02.944Z,16.70
2018-04-16T09:03:28.903Z,9.77
2018-04-16T09:05:54.858Z,13.70
2018-04-16T09:08:20.857Z,9.40
2018-04-16T09:10:47.658Z,13.17
2018-04-16T09:13:13.759Z,16.10
2018-04-16T09:15:39.749Z,11.73
2018-04-16T09:18:05.738Z,15.67
2018-04-16T09:20:31.825Z,12.30
2018-04-16T09:22:57.794Z,13.97
2018-04-16T09:25:24.539Z,13.80
2018-04-16T09:27:51.243Z,16.13
2018-04-16T09:30:17.322Z,12.37
2018-04-16T09:32:43.309Z,7.30
2018-04-16T09:35:10.018Z,9.37
2018-04-16T09:37:35.989Z,8.77
2018-04-16T09:40:02.029Z,11.40
2018-04-16T09:42:28.746Z,13.20
2018-04-16T09:44:54.741Z,10.13
2018-04-16T09:47:21.454Z,10.97
2018-04-16T09:49:47.520Z,14.77
2018-04-16T09:52:13.504Z,12.37
2018-04-16T09:54:40.227Z,11.70
2018-04-16T09:57:06.204Z,13.47
2018-04-16T09:59:32.235Z,10.73
2018-04-16T10:01:58.207Z,10.13
2018-04-16T10:04:24.905Z,12.37
2018-04-16T10:06:50.893Z,14.27
2018-04-16T10:09:16.993Z,8.80
2018-04-16T10:11:42.984Z,13.37
2018-04-16T10:14:08.977Z,14.17
2018-04-16T10:16:34.982Z,14.27
2018-04-16T10:19:00.964Z,11.77
2018-04-16T10:21:27.672Z,7.67
2018-04-16T10:23:53.633Z,12.03
2018-04-16T10:26:19.604Z,13.33
2018-04-16T10:28:45.576Z,13.23
2018-04-16T10:31:11.628Z,14.87
2018-04-16T10:33:37.627Z,13.77
2018-04-16T10:36:03.618Z,15.23
2018-04-16T10:38:30.365Z,16.27
2018-04-16T10:40:56.380Z,19.47
2018-04-16T10:43:22.337Z,9.57
2018-04-16T10:45:49.317Z,16.23
2018-04-16T10:48:16.052Z,13.43
2018-04-16T10:50:42.819Z,12.00
2018-04-16T10:53:08.863Z,9.93
2018-04-16T10:55:34.913Z,10.57
2018-04-16T10:58:00.858Z,10.23
2018-04-16T11:00:27.644Z,10.33
2018-04-16T11:02:53.643Z,12.77
2018-04-16T11:05:19.843Z,12.80
2018-04-16T11:07:45.809Z,14.97
2018-04-16T11:10:11.895Z,9.97
2018-04-16T11:12:37.872Z,12.67
2018-04-16T11:15:03.842Z,10.53
2018-04-16T11:17:29.811Z,7.60
2018-04-16T11:19:55.883Z,9.63
2018-04-16T11:22:22.212Z,9.03
2018-04-16T11:24:48.535Z,12.07
2018-04-16T11:27:14.523Z,10.23
2018-04-16T11:29:41.341Z,9.97
2018-04-16T11:32:07.576Z,7.77
2018-04-16T11:34:33.587Z,9.90
2018-04-16T11:36:59.555Z,13.03
2018-04-16T11:39:25.588Z,9.23
2018-04-16T11:41:51.569Z,13.07
2018-04-16T11:44:18.282Z,14.73
2018-04-16T11:46:44.278Z,5.83
2018-04-16T11:49:10.292Z,12.80
2018-04-16T11:51:36.290Z,12.37
2018-04-16T11:54:02.279Z,10.93
2018-04-16T11:56:29.019Z,9.90
2018-04-16T11:58:55.745Z,7.20
2018-04-16T12:01:22.526Z,10.13
2018-04-16T12:03:48.523Z,10.47
2018-04-16T12:06:15.311Z,11.83
2018-04-16T12:08:41.371Z,6.53
2018-04-16T12:11:09.044Z,12.07
2018-04-16T12:13:35.726Z,12.80
2018-04-16T12:16:01.809Z,6.57
2018-04-16T12:18:27.802Z,10.50
2018-04-16T12:20:54.574Z,10.10
2018-04-16T12:23:20.562Z,10.20
2018-04-16T12:25:47.314Z,14.60
2018-04-16T12:28:13.303Z,11.27
2018-04-16T12:30:40.122Z,10.03
2018-04-16T12:33:06.100Z,12.80
2018-04-16T12:35:32.135Z,9.30
2018-04-16T12:37:58.119Z,12.70
2018-04-16T12:40:24.869Z,11.03
2018-04-16T12:42:50.856Z,8.80
2018-04-16T12:45:17.596Z,13.83
2018-04-16T12:47:44.302Z,12.17
2018-04-16T12:50:10.275Z,10.27
2018-04-16T12:52:36.270Z,10.17
2018-04-16T12:55:02.973Z,11.40
2018-04-16T12:57:28.954Z,6.93
2018-04-16T12:59:54.984Z,9.83
2018-04-16T13:02:21.007Z,12.83
2018-04-16T13:04:47.022Z,8.57
2018-04-16T13:07:13.076Z,8.93
2018-04-16T13:09:39.069Z,5.73
2018-04-16T13:12:05.036Z,5.47
2018-04-16T13:14:31.784Z,10.57
2018-04-16T13:16:58.482Z,9.73
2018-04-16T13:19:24.474Z,6.53
2018-04-16T13:21:50.466Z,11.97
2018-04-16T13:24:16.444Z,7.63
2018-04-16T13:26:42.405Z,8.90
2018-04-16T13:29:08.462Z,7.20
2018-04-16T13:31:34.429Z,6.57
2018-04-16T13:34:01.159Z,15.87
2018-04-16T13:36:27.959Z,10.63
2018-04-16T13:38:54.647Z,10.00
2018-04-16T13:41:21.387Z,10.90
2018-04-16T13:43:48.099Z,6.67
2018-04-16T13:46:14.090Z,9.17
2018-04-16T13:48:40.043Z,13.73
2018-04-16T13:51:06.815Z,9.47
2018-04-16T13:53:33.551Z,7.60
2018-04-16T13:55:59.552Z,10.20
2018-04-16T13:58:26.304Z,6.47
2018-04-16T14:00:52.323Z,6.60
2018-04-16T14:03:18.307Z,12.27
2018-04-16T14:05:46.150Z,12.53
2018-04-16T14:08:12.137Z,6.73
2018-04-16T14:10:38.111Z,8.17
2018-04-16T14:13:04.887Z,9.37
2018-04-16T14:15:31.911Z,5.13
2018-04-16T14:17:57.912Z,9.60
2018-04-16T14:20:24.695Z,6.13
2018-04-16T14:22:50.678Z,8.60
2018-04-16T14:25:17.397Z,12.13
2018-04-16T14:27:43.395Z,10.57
2018-04-16T14:30:09.536Z,10.57
2018-04-16T14:32:35.549Z,5.17
2018-04-16T14:35:01.522Z,8.40
2018-04-16T14:37:27.489Z,8.23
2018-04-16T14:39:53.558Z,7.47
2018-04-16T14:42:19.573Z,12.13
2018-04-16T14:44:46.300Z,11.20
2018-04-16T14:47:12.476Z,8.77
2018-04-16T14:49:38.472Z,9.97
2018-04-16T14:52:04.520Z,11.53
2018-04-16T14:54:30.523Z,12.10
2018-04-16T14:56:56.542Z,10.43
2018-04-16T14:59:22.555Z,9.63
2018-04-16T15:01:48.589Z,10.60
2018-04-16T15:04:14.666Z,9.70
2018-04-16T15:06:40.688Z,8.03
2018-04-16T15:09:06.732Z,10.87
2018-04-16T15:11:33.459Z,8.37
2018-04-16T15:13:59.441Z,12.67
2018-04-16T15:16:26.243Z,10.13
2018-04-16T15:18:52.277Z,12.37
2018-04-16T15:21:18.294Z,13.73
2018-04-16T15:23:44.321Z,8.43
2018-04-16T15:26:10.340Z,8.80
2018-04-16T15:28:36.336Z,10.17
2018-04-16T15:31:02.329Z,13.00
2018-04-16T15:33:28.354Z,10.17
2018-04-16T15:35:54.392Z,10.10
2018-04-16T15:38:21.887Z,11.03
2018-04-16T15:40:48.706Z,15.27
2018-04-16T15:43:14.691Z,8.23
2018-04-16T15:45:40.739Z,8.47
2018-04-16T15:48:06.711Z,13.10
2018-04-16T15:53:07.631Z,11.17
2018-04-16T15:55:34.385Z,10.93
2018-04-16T15:58:00.397Z,5.57
2018-04-16T16:00:26.473Z,7.80
2018-04-16T16:02:52.516Z,7.97
2018-04-16T16:05:18.575Z,12.50
2018-04-16T16:07:44.640Z,9.53
2018-04-16T16:10:11.046Z,7.37
2018-04-16T16:12:37.205Z,7.10
2018-04-16T16:15:04.105Z,10.67
2018-04-16T16:17:30.131Z,9.90
2018-04-16T16:19:56.779Z,7.47
2018-04-16T16:22:23.849Z,9.43
2018-04-16T16:24:49.890Z,9.37
2018-04-16T16:27:15.942Z,9.07
2018-04-16T16:29:42.067Z,10.17
2018-04-16T16:32:09.698Z,10.57
2018-04-16T18:34:32.022Z,9.80
2018-04-16T18:39:51.934Z,10.43
2018-04-16T18:42:18.130Z,14.60
2018-04-16T18:44:44.103Z,12.13
2018-04-16T18:47:14.716Z,10.73
2018-04-16T18:49:49.157Z,11.77
2018-04-16T18:52:19.586Z,10.23
2018-04-16T18:54:46.817Z,8.77
2018-04-16T18:57:21.249Z,9.00
2018-04-16T19:02:26.833Z,8.30
2018-04-16T19:04:55.875Z,7.93
2018-04-16T19:12:43.526Z,10.20
2018-04-16T19:15:09.486Z,8.53
2018-04-16T19:17:41.438Z,8.50
2018-04-16T19:20:07.444Z,8.93
2018-04-16T19:25:06.286Z,7.87
2018-04-16T19:27:39.145Z,8.47
2018-04-16T19:30:05.116Z,7.43
2018-04-16T19:32:37.344Z,9.60
2018-04-16T19:35:07.292Z,9.13
2018-04-16T19:40:42.368Z,8.70
2018-04-16T19:43:08.362Z,10.27
2018-04-16T19:45:34.342Z,11.33
2018-04-16T19:48:00.313Z,11.37
2018-04-16T19:50:26.347Z,10.60
2018-04-16T19:52:52.355Z,7.93
2018-04-16T19:55:18.401Z,8.47
2018-04-16T19:57:50.485Z,6.57
2018-04-16T20:00:17.296Z,8.27
2018-04-16T20:02:49.343Z,7.00
2018-04-16T20:05:15.335Z,9.47
2018-04-16T20:07:41.323Z,9.10
2018-04-16T20:10:08.136Z,8.60
2018-04-16T20:12:34.126Z,8.60
2018-04-16T20:15:00.867Z,11.57
2018-04-16T20:17:26.861Z,11.10
2018-04-16T20:19:52.837Z,8.13
2018-04-16T20:22:18.807Z,10.83
2018-04-16T20:24:44.792Z,8.93
2018-04-16T20:27:10.741Z,9.80
2018-04-16T20:29:36.729Z,8.20
2018-04-16T20:32:03.456Z,5.60
2018-04-16T20:34:29.438Z,5.30
2018-04-16T20:36:55.392Z,11.43
2018-04-16T20:39:21.484Z,7.60
2018-04-16T20:41:47.461Z,9.33
2018-04-16T20:44:13.416Z,8.23
2018-04-16T20:46:39.367Z,10.17
2018-04-16T20:49:05.472Z,10.00
2018-04-16T20:51:31.462Z,7.90
2018-04-16T20:53:57.445Z,5.87
2018-04-16T20:56:24.153Z,10.47
2018-04-16T20:58:50.096Z,13.07
2018-04-16T21:01:16.859Z,8.60
2018-04-16T21:03:42.841Z,11.53
2018-04-16T21:06:08.799Z,7.63
2018-04-16T21:08:34.780Z,10.30
2018-04-16T21:11:00.830Z,11.97
2018-04-16T21:13:26.805Z,9.03
2018-04-16T21:15:52.900Z,8.20
2018-04-16T21:18:18.881Z,7.87
2018-04-16T21:20:44.914Z,8.90
2018-04-16T21:23:10.838Z,9.13
2018-04-16T21:25:36.810Z,13.33
2018-04-16T21:28:02.766Z,7.27
2018-04-16T21:30:28.810Z,11.43
2018-04-16T21:32:54.777Z,13.63
2018-04-16T21:35:21.569Z,12.37
2018-04-16T21:37:47.465Z,8.67
2018-04-16T21:40:13.429Z,11.27
2018-04-16T21:42:39.396Z,9.20
2018-04-16T21:45:05.385Z,9.60
2018-04-16T21:47:32.085Z,10.80
2018-04-16T21:49:58.093Z,6.30
2018-04-16T21:52:24.051Z,8.57
2018-04-16T21:54:50.032Z,10.90
2018-04-16T21:57:16.001Z,9.63
2018-04-16T21:59:42.079Z,9.27
2018-04-16T22:02:08.040Z,12.03
2018-04-16T22:04:34.764Z,10.23
2018-04-16T22:07:00.733Z,9.13
2018-04-16T22:09:26.702Z,6.07
2018-04-16T22:11:52.714Z,9.60
2018-04-16T22:14:18.687Z,6.07
2018-04-16T22:16:44.668Z,10.23
2018-04-16T22:19:11.671Z,11.00
2018-04-16T22:21:37.630Z,8.60
2018-04-16T22:24:04.325Z,10.47
2018-04-16T22:26:30.590Z,11.80
2018-04-16T22:28:57.301Z,11.97
2018-04-16T22:31:23.291Z,10.67
2018-04-16T22:33:49.271Z,10.50
2018-04-16T22:36:16.003Z,6.40
2018-04-16T22:38:42.722Z,8.50
2018-04-16T22:41:08.709Z,10.13
2018-04-16T22:43:34.671Z,9.83
2018-04-16T22:46:01.361Z,9.77
2018-04-16T22:48:27.317Z,9.87
2018-04-16T22:50:53.301Z,7.97
2018-04-16T22:53:19.310Z,9.67
2018-04-16T22:55:45.255Z,7.23
2018-04-16T22:58:11.189Z,11.27
2018-04-16T23:00:37.166Z,6.13
2018-04-16T23:03:03.130Z,9.27
2018-04-16T23:05:29.138Z,12.53
2018-04-16T23:07:55.128Z,8.83
2018-04-16T23:10:21.115Z,9.00
2018-04-16T23:12:47.085Z,14.73
2018-04-16T23:15:13.045Z,8.30
2018-04-16T23:17:39.015Z,9.80
2018-04-16T23:20:04.999Z,13.67
2018-04-16T23:22:30.969Z,7.83
2018-04-16T23:24:56.925Z,10.40
2018-04-16T23:27:22.892Z,7.07
2018-04-16T23:29:49.881Z,9.97
2018-04-16T23:32:16.593Z,10.90
2018-04-16T23:34:42.547Z,8.47
2018-04-16T23:37:08.524Z,11.03
2018-04-16T23:39:35.532Z,11.87
2018-04-16T23:42:01.523Z,11.03
2018-04-16T23:44:27.500Z,8.40
2018-04-16T23:46:53.462Z,8.27
2018-04-16T23:49:19.441Z,9.83
2018-04-16T23:51:45.461Z,11.23
2018-04-16T23:54:11.460Z,11.77
2018-04-16T23:56:37.486Z,10.77
2018-04-16T23:59:03.451Z,11.07
